Diego Campos

Olheiro-Chefe - Estudiantes
4 Jun 2028
Domingo
Processo

Personalidade

Adaptabilidade (17) Ambição (5) Controvérsia (18) Lealdade (7) Pressão (13) Profissionalismo (2) Espírito Esportivo (10) Temperamento (15)

Perfil

Estilo de Treinamento Democrático
Licença Continental A
Determinação 6
Gestão de Pessoas 7
Motivação 7
Disciplina 15
Satisfação no Trabalho
94%
Fadiga
0%
Função Olheiro-Chefe
Salário 41.4K p/s
Contrato 14.03.2029

Desempenho

Comportamento Bom
Eficácia do Treinamento
59%
Desenvolvimento do Jogador
40%
Prevenção de Lesões
75%
Implementação Tática
75%

Eventos Recentes

Avaliou um jogador agora
Avaliou um jogador agora
Avaliou um jogador agora

Monitorando agora

99
Jogador Clube Status Habilidade Confiança Observado Última observação Último voto
Jorge Cabezas Hurtado Watford Ativo 122 / 127 40% 1 03.06.2028 -
Jeremías Chavero Oliveirense Ativo 99 / 102 40% 1 03.06.2028 -
Tammer Kumar West Bromwich Albion Ativo 131 / 132 40% 1 03.06.2028 -
Pablo Viudez Shrewsbury Town Ativo 107 / 110 40% 1 03.06.2028 -
Marezi Portsmouth Ativo 120 / 138 40% 1 03.06.2028 -
Tom Bloxham Blackpool Ativo 107 / 117 40% 1 03.06.2028 -
Morteza Mohammadi Bodo/Glimt Relatório pronto 134 / 134 69% 1 01.06.2028 Aprovar
Michal Suslov Molde Relatório pronto 114 / 114 67% 1 01.06.2028 Aprovar
Tadeo Allende Cerro Porteno Relatório pronto 122 / 122 68% 1 01.06.2028 -
Juan Bezerra Porto Relatório pronto 118 / 122 68% 1 01.06.2028 -
Malcom Al Jazira Relatório pronto 149 / 149 68% 1 01.06.2028 -
Ronan Kpakio Cardiff City Ativo 118 / 131 40% 1 01.06.2028 -
Marvin Kaleta Rotherham United Ativo 109 / 124 40% 1 01.06.2028 -
Brad Hills Stockport County Ativo 119 / 116 40% 1 01.06.2028 -
Bruno Solotar Almagro Ativo 87 / 90 30% 1 / 1m 19.04.2028 -
Nahuel Curcio Colón Ativo 122 / 122 42% 1 / 1m 19.04.2028 -
Tobías Pérez Ferro Carril Oeste Ativo 94 / 99 52% 1 / 1m 19.04.2028 -
Gideon Manaseh Ikorodu City Ativo 96 / 84 40% 1 30.12.2027 -
Gopolang Taunyane Ajax Cape Town Ativo 92 / 111 40% 1 30.12.2027 -
Germán Barbas Osasuna Ativo 101 / 111 40% 1 30.12.2027 -
Nicolas Sport Recife Ativo 102 / 103 40% 2 29.12.2027 -
Edoardo Corvi Parma Ativo 142 / 137 40% 2 28.12.2027 -
Cezary Miszta Rio Ave Ativo 146 / 131 40% 1 28.12.2027 -
Victor Corona Santos Laguna Ativo 110 / 108 40% 4 26.12.2027 -
Bahmed Deuff FC Metz Ativo 129 / 131 40% 2 25.12.2027 -
Dilan Villarreal Junior Ativo 91 / 89 40% 2 23.12.2027 -
Izan Merino Málaga Ativo 133 / 129 40% 1 23.12.2027 -
Celías Ingenthron Racing Club Ativo 111 / 123 40% 1 22.12.2027 -
Jon Esenga IF Elfsborg Ativo 98 / 96 40% 1 22.12.2027 -
Nicolás Sumavil Platense Ativo 118 / 119 40% 2 20.12.2027 -
Juan Giménez Athletic Bilbao Ativo 125 / 129 40% 1 19.12.2027 -
Filip Reshane Lillestrom Ativo 98 / 96 40% 1 17.12.2027 -
Zane Albarus Colchester United Ativo 94 / 103 40% 1 17.12.2027 -
Yannick Geiger BK Hacken Ativo 111 / 97 40% 1 15.12.2027 -
Jonathan Klinsmann Cesena Ativo 127 / 119 40% 1 14.12.2027 -
Elia Caprile Cagliari Ativo 159 / 142 40% 3 13.12.2027 -
Lautaro Maldonado Instituto Ativo 121 / 110 40% 1 13.12.2027 -
Nikita Kokarev Krylya Sovetov Ativo 124 / 131 40% 3 12.12.2027 -
Lautaro Morales Lanús Ativo 140 / 142 40% 1 11.12.2027 -
Facundo Balatti Penarol Ativo 106 / 115 40% 2 10.12.2027 -
Dani Cárdenas Deportivo La Coruña Ativo 132 / 138 40% 2 08.12.2027 -
Onyeuche Ujunwa El-Kanemi Warriors Ativo 93 / 93 40% 1 08.12.2027 -
Fabián Correa Barranquilla Ativo 92 / 93 40% 3 07.12.2027 -
Valentino Acuña Newell's Old Boys Ativo 116 / 121 40% 1 06.12.2027 -
Sebastián Meza Huracán Ativo 130 / 123 40% 3 04.12.2027 -
Novak Mićović LA Galaxy Ativo 124 / 123 40% 1 04.12.2027 -
Alexandr Koryakin Krasnodar Ativo 114 / 119 40% 1 04.12.2027 -
Jeffrey Sekgota Universidad Catolica Ativo 86 / 84 40% 1 04.12.2027 -
Patrick Cutrone KAA Gent Ativo 131 / 131 66% 1 01.12.2027 Aprovar
Rodrigo Atencio São Paulo Ativo 129 / 129 30% 1 / 1m 27.10.2027 -
Diego Crego Independiente Rivadavia Ativo 124 / 124 42% 1 / 1m 08.09.2027 -
Abduvohid Ne'matov Nasaf Ativo 120 / 112 40% 1 19.07.2027 -
Jokin Ezkieta Racing Club Ativo 123 / 135 40% 1 17.07.2027 -
Tomás Durso Atlético Tucumán Ativo 123 / 125 40% 1 16.07.2027 -
Mateusz Kochalski Qarabag Ativo 130 / 143 40% 5 15.07.2027 -
Luca Martínez Dupuy Godoy Cruz Ativo 123 / 118 40% 1 13.07.2027 -
Matías Borgogno San Martín SJ Ativo 122 / 119 40% 1 12.07.2027 -
Ciprian Dragusin Krasnodar Ativo 147 / 152 40% 1 10.07.2027 -
Egas Cacintura Akhmat Grozny Ativo 120 / 116 40% 1 10.07.2027 -
Franco Petroli Zenit Ativo 125 / 139 40% 4 09.07.2027 -
Juan Peñaloza Lokomotiv Moscow Ativo 116 / 113 40% 1 09.07.2027 -
Maílson Al-Taawoun Ativo 128 / 117 40% 1 08.07.2027 -
Musa Barrow Al-Khaleej Ativo 134 / 132 40% 5 07.07.2027 -
Mohammad Alsalkhadi Damac Ativo 119 / 102 40% 3 07.07.2027 -
Youssef En-Nesyri Al-Ittihad Ativo 141 / 141 40% 2 04.07.2027 -
Mats Egbring Heerenveen Ativo 105 / 122 40% 1 04.07.2027 -
Fashion Sakala Al-Fayha Ativo 137 / 143 40% 2 02.07.2027 -
Dardan Shabanhaxhaj Rubin Ativo 116 / 122 40% 1 30.06.2027 -
Bruno Barticciotto Olympique Lyonnais Ativo 131 / 135 40% 1 30.06.2027 -
Elias Baum Eintracht Frankfurt Ativo 133 / 133 40% 1 30.06.2027 -
Honest Ahanor Fiorentina Ativo 138 / 153 40% 1 30.06.2027 -
Randy Nteka Rayo Vallecano Ativo 123 / 122 40% 1 27.06.2027 -
Julián Quiñones Al-Qadisiyah Ativo 155 / 132 40% 1 26.06.2027 -
Chinedu Geoffrey Krylya Sovetov Ativo 120 / 127 40% 1 25.06.2027 -
Gorka Guruzeta Athletic Bilbao Ativo 145 / 148 40% 2 24.06.2027 -
Ismaël Baouf Cambuur Ativo 120 / 139 40% 1 23.06.2027 -
Joe Knight Stevenage Ativo 103 / 119 40% 2 21.06.2027 -
Brayan Gil Baltika Ativo 130 / 123 40% 1 21.06.2027 -
Simone Kosijer Triestina Ativo 91 / 86 40% 2 19.06.2027 -
Martim Cunha Porto Ativo 96 / 95 40% 2 19.06.2027 -
Eliás Montiel Athletic Bilbao Ativo 131 / 129 40% 1 19.06.2027 -
Ezra Mayers West Ham United Ativo 113 / 119 40% 1 18.06.2027 -
Matevž Vidovšek Olimpija Ljubljana Ativo 119 / 110 40% 1 16.06.2027 -
Facundo Cambeses Racing Club Ativo 130 / 134 40% 2 14.06.2027 -
Etiosa Ighodaro Lanús Ativo 109 / 110 66% 1 14.06.2027 Aprovar
Emiliano González BATE Ativo 121 / 103 40% 1 02.06.2027 -
Mohammad Mehdi Mohebi Persepolis Ativo 116 / 116 68% 1 01.06.2027 Aprovar
Bautista Fernández Temperley Ativo 94 / 99 30% 1 / 1m 21.04.2027 -
Diego Romero Universitario Ativo 117 / 126 40% 1 22.12.2026 -
Alex Meret Napoli Ativo 152 / 143 40% 1 22.12.2026 -
Pejman Azmoun Gostaresh Foulad Ativo 128 / 128 67% 1 14.12.2026 Aprovar
Román Gamarra San Telmo Ativo 110 / 113 52% 1 / 1m 26.08.2026 -
Tomás Attis Patronato Ativo 121 / 121 52% 1 / 1m 26.08.2026 -
Brandon Cortés Boca Juniors Ativo 113 / 113 30% 1 / 1m 26.08.2026 -
Gustavo Fernández Ativo 115 / 115 30% 1 / 1m 26.08.2026 -
Axel Páez Los Andes Ativo 91 / 94 30% 1 / 1m 19.08.2026 -
Francisco Borda Central Norte Ativo 104 / 107 30% 1 / 1m 19.08.2026 -
Lucas Brochero Boca Juniors Ativo 117 / 117 30% 1 / 1m 19.08.2026 -
Gustavo Mendoza Atlanta Ativo 106 / 106 30% 1 / 1m 19.08.2026 -